This is the latest recevied weather packets stored in our database for station/object OH2HCY-3. If no packets are shown the sender has not sent any weather packets the latest 10 day(s).
| Time | Temp. | Humidity | Pressure | Rain* | Wind** | Luminosity | Snow |
|---|---|---|---|---|---|---|---|
| 1777816160 | 12.22° C | 61% | 1008.2 hPa | - | - | - | - |
| 1777814970 | 12.78° C | 59% | 1008.2 hPa | - | - | - | - |
| 1777813832 | 13.89° C | - | 1008.1 hPa | - | - | - | - |
| 1777813829 | 13.89° C | 57% | 1008.1 hPa | - | - | - | - |
| 1777812840 | 13.89° C | 56% | 1008.1 hPa | - | - | - | - |
| 1777811825 | 14.44° C | 54% | 1008 hPa | - | - | - | - |
| 1777810690 | 15° C | 54% | 1008.2 hPa | - | - | - | - |
| 1777809505 | 13.89° C | 55% | 1008.3 hPa | - | - | - | - |
| 1777808310 | 14.44° C | 54% | 1008.1 hPa | - | - | - | - |
| 1777807230 | 14.44° C | 54% | 1008.1 hPa | - | - | - | - |
| 1777807225 | 14.44° C | 54% | 1008.1 hPa | - | - | - | - |
| 1777806215 | 15° C | 52% | 1008.2 hPa | - | - | - | - |
| 1777805069 | 15° C | 52% | 1008.1 hPa | - | - | - | - |
| 1777803945 | 15° C | 53% | 1008.2 hPa | - | - | - | - |
| 1777802895 | 13.89° C | 54% | 1008.2 hPa | - | - | - | - |
| 1777801895 | - | - | - | - | - | - | - |
| 1777801890 | 13.33° C | 57% | 1008.3 hPa | - | - | - | - |
| 1777800870 | 12.78° C | 58% | 1008.3 hPa | - | - | - | - |
| 1777799745 | 12.78° C | 59% | 1008.3 hPa | - | - | - | - |
| 1777798675 | 12.78° C | 59% | 1008.3 hPa | - | - | - | - |
| 1777797575 | 12.22° C | 61% | 1008.3 hPa | - | - | - | - |
| 1777796604 | 10.56° C | 66% | 1008.3 hPa | - | - | - | - |
| 1777795650 | 10.56° C | 67% | 1008.2 hPa | - | - | - | - |
| 1777794490 | 10.56° C | 66% | 1008.1 hPa | - | - | - | - |
| 1777793385 | 10° C | 67% | 1007.8 hPa | - | - | - | - |
* Rain since midnight (hover to see other rain measurements)
** Current wind speed in m/s (hover to see current wind gust speed)